createdAt,value
2022-08-17T00:00:53.269Z,21.70
2022-08-17T00:03:23.723Z,21.67
2022-08-17T00:05:53.823Z,21.65
2022-08-17T00:08:23.584Z,21.63
2022-08-17T00:10:51.919Z,21.59
2022-08-17T00:13:21.924Z,21.57
2022-08-17T00:15:48.987Z,21.54
2022-08-17T00:19:01.560Z,21.50
2022-08-17T00:21:10.355Z,21.48
2022-08-17T00:23:47.757Z,21.45
2022-08-17T00:26:16.512Z,21.42
2022-08-17T00:29:03.873Z,21.39
2022-08-17T00:31:30.504Z,21.36
2022-08-17T00:33:57.241Z,21.35
2022-08-17T00:36:23.892Z,21.32
2022-08-17T00:38:51.952Z,21.29
2022-08-17T00:41:22.746Z,21.27
2022-08-17T00:43:51.203Z,21.24
2022-08-17T00:46:21.546Z,21.20
2022-08-17T00:48:49.107Z,21.18
2022-08-17T00:51:19.833Z,21.17
2022-08-17T00:53:51.069Z,21.15
2022-08-17T00:56:27.176Z,21.14
2022-08-17T00:58:55.071Z,21.11
2022-08-17T01:01:22.296Z,21.10
2022-08-17T01:03:50.291Z,21.08
2022-08-17T01:06:17.554Z,21.05
2022-08-17T01:08:44.693Z,21.02
2022-08-17T01:11:11.287Z,20.99
2022-08-17T01:13:42.072Z,20.98
2022-08-17T01:16:15.809Z,20.95
2022-08-17T01:18:43.146Z,20.90
2022-08-17T01:21:15.114Z,20.88
2022-08-17T01:23:43.069Z,20.85
2022-08-17T01:26:09.723Z,20.83
2022-08-17T01:28:54.154Z,20.81
2022-08-17T01:31:24.158Z,20.77
2022-08-17T01:33:50.879Z,20.77
2022-08-17T01:36:17.466Z,20.74
2022-08-17T01:38:45.479Z,20.72
2022-08-17T01:41:15.234Z,20.69
2022-08-17T01:43:44.921Z,20.67
2022-08-17T01:46:15.581Z,20.64
2022-08-17T01:48:42.250Z,20.62
2022-08-17T01:51:08.954Z,20.62
2022-08-17T01:53:40.558Z,20.60
2022-08-17T01:56:11.143Z,20.58
2022-08-17T01:58:38.991Z,20.54
2022-08-17T02:01:07.192Z,20.51
2022-08-17T02:03:35.992Z,20.49
2022-08-17T02:06:05.175Z,20.46
2022-08-17T02:08:38.842Z,20.44
2022-08-17T02:11:15.611Z,20.42
2022-08-17T02:13:42.679Z,20.40
2022-08-17T02:16:09.372Z,20.40
2022-08-17T02:18:36.202Z,20.38
2022-08-17T02:21:03.769Z,20.37
2022-08-17T02:23:34.483Z,20.34
2022-08-17T02:26:01.981Z,20.31
2022-08-17T02:28:30.160Z,20.28
2022-08-17T02:31:01.793Z,20.26
2022-08-17T02:33:41.719Z,20.23
2022-08-17T02:36:11.189Z,20.20
2022-08-17T02:38:38.581Z,20.20
2022-08-17T02:41:05.515Z,20.18
2022-08-17T02:43:33.499Z,20.16
2022-08-17T02:46:00.167Z,20.14
2022-08-17T02:48:30.721Z,20.11
2022-08-17T02:50:58.003Z,20.10
2022-08-17T02:53:24.639Z,20.08
2022-08-17T02:55:52.611Z,20.07
2022-08-17T02:58:35.058Z,20.06
2022-08-17T03:01:05.564Z,20.04
2022-08-17T03:03:32.357Z,20.02
2022-08-17T03:05:59.037Z,20.01
2022-08-17T03:08:25.734Z,20.00
2022-08-17T03:10:52.884Z,19.99
2022-08-17T03:13:19.557Z,19.97
2022-08-17T03:15:47.843Z,19.97
2022-08-17T03:18:24.965Z,19.96
2022-08-17T03:20:53.477Z,19.95
2022-08-17T03:23:23.847Z,19.95
2022-08-17T03:25:52.780Z,19.93
2022-08-17T03:28:20.880Z,19.92
2022-08-17T03:30:47.469Z,19.89
2022-08-17T03:33:16.011Z,19.88
2022-08-17T03:35:42.677Z,19.86
2022-08-17T03:38:11.584Z,19.83
2022-08-17T03:40:57.509Z,19.81
2022-08-17T03:43:25.917Z,19.78
2022-08-17T03:45:52.487Z,19.76
2022-08-17T03:48:21.671Z,19.76
2022-08-17T03:50:48.247Z,19.74
2022-08-17T03:53:17.051Z,19.72
2022-08-17T03:55:43.607Z,19.72
2022-08-17T03:58:10.227Z,19.71
2022-08-17T04:00:39.723Z,19.70
2022-08-17T04:03:06.461Z,19.69
2022-08-17T04:05:36.847Z,19.68
2022-08-17T04:08:05.219Z,19.69
2022-08-17T04:10:32.900Z,19.68
2022-08-17T04:13:00.576Z,19.68
2022-08-17T04:15:27.858Z,19.69
2022-08-17T04:17:54.978Z,19.70
2022-08-17T04:20:23.986Z,19.71
2022-08-17T04:23:02.927Z,19.73
2022-08-17T04:25:33.130Z,19.75
2022-08-17T04:28:01.025Z,19.78
2022-08-17T04:30:28.813Z,19.83
2022-08-17T04:33:03.494Z,19.98
2022-08-17T04:35:34.182Z,20.23
2022-08-17T04:38:02.074Z,20.62
2022-08-17T04:40:28.752Z,21.09
2022-08-17T04:43:01.449Z,21.61
2022-08-17T04:45:32.033Z,21.91
2022-08-17T04:47:59.587Z,21.99
2022-08-17T04:50:26.462Z,21.98
2022-08-17T04:52:53.022Z,21.92
2022-08-17T04:55:21.132Z,21.88
2022-08-17T04:57:47.807Z,21.88
2022-08-17T05:00:14.862Z,21.89
2022-08-17T05:02:49.653Z,21.91
2022-08-17T05:05:18.662Z,21.93
2022-08-17T05:07:45.215Z,22.01
2022-08-17T05:10:12.300Z,22.11
2022-08-17T05:12:40.201Z,22.18
2022-08-17T05:15:11.643Z,22.20
2022-08-17T05:17:38.175Z,22.21
2022-08-17T05:20:05.700Z,22.22
2022-08-17T05:22:32.227Z,22.22
2022-08-17T05:24:58.776Z,22.21
2022-08-17T05:27:30.803Z,22.24
2022-08-17T05:30:04.299Z,22.28
2022-08-17T05:32:38.905Z,22.35
2022-08-17T05:35:07.644Z,22.42
2022-08-17T05:37:34.248Z,22.47
2022-08-17T05:40:01.051Z,22.54
2022-08-17T05:42:27.699Z,22.63
2022-08-17T05:44:57.951Z,22.73
2022-08-17T05:47:27.051Z,22.84
2022-08-17T05:49:54.426Z,22.95
2022-08-17T05:52:27.970Z,23.08
2022-08-17T05:55:06.789Z,23.23
2022-08-17T05:57:52.865Z,23.36
2022-08-17T06:00:26.354Z,23.47
2022-08-17T06:03:25.128Z,23.58
2022-08-17T06:05:59.566Z,23.67
2022-08-17T06:08:33.891Z,23.76
2022-08-17T06:11:09.211Z,23.83
2022-08-17T06:13:49.660Z,23.91
2022-08-17T06:16:33.359Z,24.02
2022-08-17T06:19:09.967Z,24.17
2022-08-17T06:21:42.435Z,24.30
2022-08-17T06:24:31.322Z,24.46
2022-08-17T06:27:06.132Z,24.62
2022-08-17T06:29:39.580Z,24.77
2022-08-17T06:32:09.226Z,24.92
2022-08-17T06:34:43.157Z,25.08
2022-08-17T06:37:21.691Z,25.21
2022-08-17T06:40:07.777Z,25.36
2022-08-17T06:43:02.752Z,25.53
2022-08-17T06:45:34.467Z,25.67
2022-08-17T06:48:07.070Z,25.82
2022-08-17T06:50:38.763Z,25.93
2022-08-17T06:53:13.793Z,26.08
2022-08-17T06:55:46.836Z,26.23
2022-08-17T06:58:16.995Z,26.36
2022-08-17T07:00:47.891Z,26.46
2022-08-17T07:03:26.186Z,26.51
2022-08-17T07:05:58.949Z,26.63
2022-08-17T07:08:33.996Z,26.78
2022-08-17T07:11:08.631Z,26.91
2022-08-17T07:13:44.338Z,27.00
2022-08-17T07:16:24.114Z,27.11
2022-08-17T07:18:52.471Z,27.22
2022-08-17T07:21:35.535Z,27.33
2022-08-17T07:24:26.338Z,27.45
2022-08-17T07:27:11.773Z,27.56
2022-08-17T07:29:41.792Z,27.65
2022-08-17T07:32:11.030Z,27.73
2022-08-17T07:35:04.321Z,27.80
2022-08-17T07:37:33.393Z,27.84
2022-08-17T07:40:15.797Z,27.89
2022-08-17T07:42:45.811Z,27.99
2022-08-17T07:45:15.003Z,28.10
2022-08-17T07:47:50.740Z,28.17
2022-08-17T07:50:26.375Z,28.25
2022-08-17T07:52:54.381Z,28.34
2022-08-17T07:55:29.978Z,28.45
2022-08-17T07:57:58.078Z,28.53
2022-08-17T08:00:32.234Z,28.57
2022-08-17T08:03:12.591Z,28.62
2022-08-17T08:05:50.954Z,28.66
2022-08-17T08:08:37.298Z,28.68
2022-08-17T08:11:07.738Z,28.70
2022-08-17T08:13:35.981Z,28.73
2022-08-17T08:16:29.675Z,28.75
2022-08-17T08:18:58.503Z,28.79
2022-08-17T08:21:34.698Z,28.85
2022-08-17T08:24:19.714Z,28.89
2022-08-17T08:26:55.433Z,28.92
2022-08-17T08:29:31.508Z,28.96
2022-08-17T08:32:07.411Z,28.99
2022-08-17T08:34:46.351Z,29.03
2022-08-17T08:37:42.701Z,29.05
2022-08-17T08:40:32.708Z,29.03
2022-08-17T08:43:11.723Z,29.02
2022-08-17T08:45:48.429Z,29.02
2022-08-17T08:48:52.851Z,29.04
2022-08-17T08:51:35.405Z,29.07
2022-08-17T08:54:13.935Z,29.10
2022-08-17T08:57:21.495Z,29.15
2022-08-17T08:59:51.234Z,29.19
2022-08-17T09:02:43.308Z,29.21
2022-08-17T09:05:25.824Z,29.24
2022-08-17T09:08:02.586Z,29.26
2022-08-17T09:10:35.077Z,29.28
2022-08-17T09:13:10.803Z,29.32
2022-08-17T09:15:42.430Z,29.33
2022-08-17T09:19:03.191Z,29.37
2022-08-17T09:21:05.872Z,29.39
2022-08-17T09:23:37.203Z,29.45
2022-08-17T09:26:14.199Z,29.48
2022-08-17T09:28:47.980Z,29.51
2022-08-17T09:31:19.064Z,29.54
2022-08-17T09:33:47.564Z,29.57
2022-08-17T09:36:20.337Z,29.62
2022-08-17T09:38:57.171Z,29.67
2022-08-17T09:41:31.587Z,29.72
2022-08-17T09:44:06.961Z,29.76
2022-08-17T09:46:40.786Z,29.84
2022-08-17T09:49:13.068Z,29.92
2022-08-17T09:51:44.934Z,29.96
2022-08-17T09:54:38.173Z,30.00
2022-08-17T09:57:32.753Z,30.03
2022-08-17T10:00:17.194Z,30.08
2022-08-17T10:03:12.409Z,30.17
2022-08-17T10:05:44.300Z,30.27
2022-08-17T10:08:22.147Z,30.40
2022-08-17T10:11:02.452Z,30.48
2022-08-17T10:13:35.932Z,30.58
2022-08-17T10:16:12.205Z,30.66
2022-08-17T10:18:46.809Z,30.75
2022-08-17T10:21:15.837Z,30.80
2022-08-17T10:23:46.014Z,30.87
2022-08-17T10:26:18.456Z,31.00
2022-08-17T10:28:51.592Z,31.12
2022-08-17T10:31:36.666Z,31.18
2022-08-17T10:34:41.095Z,31.31
2022-08-17T10:37:29.253Z,31.35
2022-08-17T10:40:20.783Z,31.33
2022-08-17T10:42:51.375Z,31.34
2022-08-17T10:45:25.637Z,31.32
2022-08-17T10:48:01.317Z,31.35
2022-08-17T10:50:57.735Z,31.46
2022-08-17T10:53:58.164Z,31.58
2022-08-17T10:56:39.870Z,31.63
2022-08-17T10:59:06.586Z,31.70
2022-08-17T11:02:00.142Z,31.78
2022-08-17T11:04:36.062Z,31.83
2022-08-17T11:07:12.016Z,31.89
2022-08-17T11:09:55.531Z,31.93
2022-08-17T11:12:36.402Z,31.99
2022-08-17T11:15:26.368Z,32.07
2022-08-17T11:18:25.668Z,32.13
2022-08-17T11:21:29.065Z,32.27
2022-08-17T11:24:15.818Z,32.36
2022-08-17T11:26:45.661Z,32.35
2022-08-17T11:29:20.704Z,32.34
2022-08-17T11:32:01.865Z,32.37
2022-08-17T11:34:31.018Z,32.35
2022-08-17T11:37:36.333Z,32.22
2022-08-17T11:40:41.537Z,32.13
2022-08-17T11:43:25.337Z,32.12
2022-08-17T11:46:10.564Z,32.10
2022-08-17T11:48:47.588Z,32.04
2022-08-17T11:51:16.470Z,32.00
2022-08-17T11:56:58.007Z,32.04
2022-08-17T11:59:53.841Z,32.15
2022-08-17T12:02:43.338Z,32.22
2022-08-17T12:05:28.232Z,32.25
2022-08-17T12:08:06.387Z,32.33
2022-08-17T12:10:38.802Z,32.38
2022-08-17T12:13:11.186Z,32.39
2022-08-17T12:15:42.980Z,32.38
2022-08-17T12:18:19.103Z,32.38
2022-08-17T12:20:53.260Z,32.37
2022-08-17T12:23:31.711Z,32.34
2022-08-17T12:26:06.085Z,32.29
2022-08-17T12:28:35.797Z,32.25
2022-08-17T12:31:04.435Z,32.27
2022-08-17T12:33:31.439Z,32.29
2022-08-17T12:36:01.557Z,32.29
2022-08-17T12:38:33.160Z,32.30
2022-08-17T12:41:03.406Z,32.29
2022-08-17T12:43:30.018Z,32.28
2022-08-17T12:45:58.611Z,32.32
2022-08-17T12:48:26.459Z,32.40
2022-08-17T12:51:00.004Z,32.52
2022-08-17T12:53:28.818Z,32.62
2022-08-17T12:55:57.671Z,32.69
2022-08-17T12:58:30.841Z,32.83
2022-08-17T13:01:03.120Z,32.99
2022-08-17T13:03:37.668Z,33.10
2022-08-17T13:06:06.683Z,33.17
2022-08-17T13:08:35.487Z,33.15
2022-08-17T13:11:05.679Z,33.19
2022-08-17T13:13:36.926Z,33.24
2022-08-17T13:16:06.603Z,33.17
2022-08-17T13:18:40.708Z,33.17
2022-08-17T13:21:16.459Z,33.22
2022-08-17T13:23:54.765Z,33.28
2022-08-17T13:26:27.744Z,33.35
2022-08-17T13:28:55.628Z,33.42
2022-08-17T13:31:31.160Z,33.55
2022-08-17T13:34:13.433Z,33.68
2022-08-17T13:36:42.147Z,33.72
2022-08-17T13:39:16.626Z,33.73
2022-08-17T13:41:43.367Z,33.77
2022-08-17T13:44:34.975Z,33.88
2022-08-17T13:47:02.809Z,34.03
2022-08-17T13:49:41.963Z,34.21
2022-08-17T13:52:35.028Z,34.33
2022-08-17T13:55:14.694Z,34.36
2022-08-17T13:57:45.347Z,34.38
2022-08-17T14:00:19.372Z,34.43
2022-08-17T14:02:45.932Z,34.42
2022-08-17T14:05:12.495Z,34.41
2022-08-17T14:07:39.700Z,34.32
2022-08-17T14:10:11.355Z,34.20
2022-08-17T14:12:40.461Z,34.15
2022-08-17T14:15:08.544Z,34.11
2022-08-17T14:17:38.813Z,34.04
2022-08-17T14:20:09.845Z,33.97
2022-08-17T14:22:39.528Z,33.86
2022-08-17T14:25:10.441Z,33.78
2022-08-17T14:27:43.516Z,33.78
2022-08-17T14:30:20.972Z,33.80
2022-08-17T14:32:49.086Z,33.82
2022-08-17T14:35:15.956Z,33.78
2022-08-17T14:37:43.207Z,33.66
2022-08-17T14:40:12.196Z,33.55
2022-08-17T14:42:41.436Z,33.49
2022-08-17T14:45:29.644Z,33.52
2022-08-17T14:47:58.327Z,33.55
2022-08-17T14:50:24.894Z,33.52
2022-08-17T14:52:51.499Z,33.51
2022-08-17T14:55:18.196Z,33.51
2022-08-17T14:57:45.312Z,33.51
2022-08-17T15:00:13.694Z,33.51
2022-08-17T15:02:46.694Z,33.51
2022-08-17T15:05:15.390Z,33.48
2022-08-17T15:07:42.117Z,33.48
2022-08-17T15:10:09.180Z,33.54
2022-08-17T15:12:36.013Z,33.54
2022-08-17T15:15:05.296Z,33.54
2022-08-17T15:17:45.043Z,33.54
2022-08-17T15:20:23.266Z,33.54
2022-08-17T15:22:50.580Z,33.53
2022-08-17T15:25:18.506Z,33.54
2022-08-17T15:27:45.155Z,33.54
2022-08-17T15:30:12.687Z,33.59
2022-08-17T15:32:41.334Z,33.61
2022-08-17T15:35:22.175Z,33.64
2022-08-17T15:37:54.543Z,33.63
2022-08-17T15:40:21.132Z,33.60
2022-08-17T15:42:47.836Z,33.51
2022-08-17T15:45:14.685Z,33.42
2022-08-17T15:47:41.354Z,33.31
2022-08-17T15:50:09.626Z,33.16
2022-08-17T15:52:37.674Z,33.06
2022-08-17T15:55:06.364Z,33.00
2022-08-17T15:57:33.026Z,32.95
2022-08-17T15:59:59.768Z,32.91
2022-08-17T16:03:46.197Z,32.88
2022-08-17T16:05:19.801Z,32.88
2022-08-17T16:07:48.034Z,32.84
2022-08-17T16:10:18.834Z,32.78
2022-08-17T16:12:48.443Z,32.68
2022-08-17T16:15:15.947Z,32.58
2022-08-17T16:17:42.839Z,32.51
2022-08-17T16:20:20.148Z,32.47
2022-08-17T16:22:50.489Z,32.45
2022-08-17T16:25:19.639Z,32.41
2022-08-17T16:27:48.551Z,32.34
2022-08-17T16:30:17.593Z,32.28
2022-08-17T16:32:46.392Z,32.23
2022-08-17T16:35:14.949Z,32.18
2022-08-17T16:37:41.789Z,32.10
2022-08-17T16:40:15.033Z,32.05
2022-08-17T16:42:42.175Z,32.03
2022-08-17T16:45:12.573Z,31.99
2022-08-17T16:47:40.085Z,31.95
2022-08-17T16:50:08.041Z,31.89
2022-08-17T16:52:35.173Z,31.82
2022-08-17T16:55:03.470Z,31.77
2022-08-17T16:57:31.659Z,31.70
2022-08-17T16:59:58.513Z,31.65
2022-08-17T17:02:28.454Z,31.63
2022-08-17T17:05:02.158Z,31.60
2022-08-17T17:07:49.168Z,31.58
2022-08-17T17:10:20.468Z,31.54
2022-08-17T17:13:03.310Z,31.50
2022-08-17T17:15:44.992Z,31.48
2022-08-17T17:18:13.520Z,31.46
2022-08-17T17:20:49.350Z,31.44
2022-08-17T17:23:33.872Z,31.40
2022-08-17T17:26:11.593Z,31.35
2022-08-17T17:28:52.849Z,31.30
2022-08-17T17:31:21.610Z,31.22
2022-08-17T17:33:51.685Z,31.16
2022-08-17T17:36:26.180Z,31.10
2022-08-17T17:38:57.708Z,31.07
2022-08-17T17:41:29.455Z,31.02
2022-08-17T17:44:02.834Z,30.99
2022-08-17T17:46:34.322Z,30.96
2022-08-17T17:49:01.185Z,30.87
2022-08-17T17:52:08.653Z,30.81
2022-08-17T17:54:33.687Z,30.71
2022-08-17T17:57:06.852Z,30.65
2022-08-17T17:59:43.935Z,30.57
2022-08-17T18:02:25.581Z,30.49
2022-08-17T18:05:02.926Z,30.44
2022-08-17T18:07:37.615Z,30.38
2022-08-17T18:10:19.536Z,30.32
2022-08-17T18:13:02.934Z,30.21
2022-08-17T18:15:36.718Z,30.13
2022-08-17T18:18:30.310Z,30.04
2022-08-17T18:21:00.334Z,29.94
2022-08-17T18:23:28.614Z,29.86
2022-08-17T18:25:57.634Z,29.79
2022-08-17T18:28:27.990Z,29.69
2022-08-17T18:31:18.305Z,29.58
2022-08-17T18:33:48.440Z,29.50
2022-08-17T18:36:27.033Z,29.42
2022-08-17T18:39:10.391Z,29.34
2022-08-17T18:41:41.410Z,29.25
2022-08-17T18:44:25.598Z,29.14
2022-08-17T18:47:07.768Z,29.04
2022-08-17T18:49:34.942Z,28.92
2022-08-17T18:52:14.215Z,28.83
2022-08-17T18:54:59.275Z,28.72
2022-08-17T18:57:31.502Z,28.61
2022-08-17T18:59:58.937Z,28.54
2022-08-17T19:05:37.508Z,28.40
2022-08-17T19:08:22.031Z,28.30
2022-08-17T19:10:51.312Z,28.23
2022-08-17T19:13:24.479Z,28.15
2022-08-17T19:16:11.908Z,28.07
2022-08-17T19:18:48.449Z,27.99
2022-08-17T19:21:18.639Z,27.92
2022-08-17T19:23:53.334Z,27.86
2022-08-17T19:27:46.265Z,27.78
2022-08-17T19:30:15.037Z,27.72
2022-08-17T19:32:42.151Z,27.66
2022-08-17T19:35:16.606Z,27.59
2022-08-17T19:37:57.145Z,27.53
2022-08-17T19:43:30.383Z,27.41
2022-08-17T19:46:07.387Z,27.35
2022-08-17T19:48:46.246Z,27.29
2022-08-17T19:51:17.533Z,27.24
2022-08-17T19:54:05.281Z,27.19
2022-08-17T19:56:41.272Z,27.14
2022-08-17T19:59:15.994Z,27.09
2022-08-17T20:01:47.718Z,27.05
2022-08-17T20:04:26.426Z,26.99
2022-08-17T20:07:06.324Z,26.95
2022-08-17T20:09:36.896Z,26.91
2022-08-17T20:12:08.240Z,26.86
2022-08-17T20:14:41.126Z,26.81
2022-08-17T20:17:21.277Z,26.75
2022-08-17T20:19:51.750Z,26.70
2022-08-17T20:22:26.106Z,26.66
2022-08-17T20:24:59.123Z,26.61
2022-08-17T20:27:31.530Z,26.59
2022-08-17T20:30:05.282Z,26.55
2022-08-17T20:32:33.410Z,26.49
2022-08-17T20:35:09.367Z,26.47
2022-08-17T20:37:40.251Z,26.44
2022-08-17T20:40:35.991Z,26.42
2022-08-17T20:43:43.739Z,26.38
2022-08-17T20:46:24.048Z,26.33
2022-08-17T20:48:54.390Z,26.29
2022-08-17T20:51:32.430Z,26.26
2022-08-17T20:54:40.527Z,26.22
2022-08-17T20:57:14.204Z,26.17
2022-08-17T21:00:01.313Z,26.14
2022-08-17T21:02:29.545Z,26.07
2022-08-17T21:05:07.168Z,26.03
2022-08-17T21:07:56.579Z,25.99
2022-08-17T21:10:37.511Z,25.94
2022-08-17T21:13:39.956Z,25.90
2022-08-17T21:16:22.482Z,25.85
2022-08-17T21:19:00.375Z,25.80
2022-08-17T21:21:38.147Z,25.75
2022-08-17T21:24:18.295Z,25.71
2022-08-17T21:26:52.937Z,25.67
2022-08-17T21:29:31.192Z,25.65
2022-08-17T21:32:19.182Z,25.61
2022-08-17T21:35:25.846Z,25.58
2022-08-17T21:37:58.523Z,25.54
2022-08-17T21:40:27.421Z,25.53
2022-08-17T21:42:57.279Z,25.51
2022-08-17T21:45:27.261Z,25.49
2022-08-17T21:48:08.705Z,25.46
2022-08-17T21:50:37.632Z,25.43
2022-08-17T21:53:05.486Z,25.39
2022-08-17T21:55:34.862Z,25.37
2022-08-17T21:58:22.875Z,25.36
2022-08-17T22:01:13.481Z,25.33
2022-08-17T22:03:41.068Z,25.31
2022-08-17T22:06:26.254Z,25.30
2022-08-17T22:09:06.968Z,25.30
2022-08-17T22:11:48.071Z,25.29
2022-08-17T22:14:17.487Z,25.27
2022-08-17T22:16:44.230Z,25.24
2022-08-17T22:19:10.834Z,25.22
2022-08-17T22:21:39.011Z,25.20
2022-08-17T22:24:16.097Z,25.17
2022-08-17T22:27:03.560Z,25.16
2022-08-17T22:29:58.266Z,25.13
2022-08-17T22:32:37.392Z,25.10
2022-08-17T22:35:32.965Z,25.09
2022-08-17T22:38:31.364Z,25.05
2022-08-17T22:41:14.971Z,25.02
2022-08-17T22:43:43.154Z,24.99
2022-08-17T22:46:11.900Z,24.98
2022-08-17T22:48:47.579Z,24.96
2022-08-17T22:51:19.152Z,24.95
2022-08-17T22:53:49.465Z,24.93
2022-08-17T22:56:24.766Z,24.91
2022-08-17T22:58:58.934Z,24.92
2022-08-17T23:01:26.857Z,24.88
2022-08-17T23:03:54.529Z,24.86
2022-08-17T23:06:21.113Z,24.85
2022-08-17T23:08:49.123Z,24.82
2022-08-17T23:11:15.957Z,24.80
2022-08-17T23:13:42.657Z,24.78
2022-08-17T23:16:09.352Z,24.77
2022-08-17T23:18:35.975Z,24.74
2022-08-17T23:21:02.605Z,24.73
2022-08-17T23:23:29.825Z,24.72
2022-08-17T23:25:57.795Z,24.69
2022-08-17T23:28:24.360Z,24.65
2022-08-17T23:30:50.942Z,24.63
2022-08-17T23:33:21.045Z,24.60
2022-08-17T23:35:47.912Z,24.59
2022-08-17T23:38:14.501Z,24.57
2022-08-17T23:40:41.298Z,24.55
2022-08-17T23:43:24.801Z,24.52
2022-08-17T23:45:53.703Z,24.49
2022-08-17T23:48:28.512Z,24.46
2022-08-17T23:51:05.496Z,24.42
2022-08-17T23:53:34.575Z,24.40
2022-08-17T23:56:03.701Z,24.38
2022-08-17T23:58:38.501Z,24.36
